sensor_id;sensor_type;location;lat;lon;timestamp;P1;durP1;ratioP1;P2;durP2;ratioP2
40595;SDS011;26304;48.794;9.820;2023-04-01T00:04:08;0.43;;;0.40;;
40595;SDS011;26304;48.794;9.820;2023-04-01T00:09:51;0.60;;;0.60;;
40595;SDS011;26304;48.794;9.820;2023-04-01T00:15:35;0.40;;;0.40;;
40595;SDS011;26304;48.794;9.820;2023-04-01T00:21:18;0.60;;;0.50;;
40595;SDS011;26304;48.794;9.820;2023-04-01T00:27:01;1.38;;;0.45;;
40595;SDS011;26304;48.794;9.820;2023-04-01T00:32:45;0.50;;;0.40;;
40595;SDS011;26304;48.794;9.820;2023-04-01T00:38:27;0.30;;;0.30;;
40595;SDS011;26304;48.794;9.820;2023-04-01T00:44:16;0.30;;;0.30;;
40595;SDS011;26304;48.794;9.820;2023-04-01T00:50:02;0.47;;;0.40;;
40595;SDS011;26304;48.794;9.820;2023-04-01T00:55:45;0.40;;;0.40;;
40595;SDS011;26304;48.794;9.820;2023-04-01T01:01:33;0.52;;;0.40;;
40595;SDS011;26304;48.794;9.820;2023-04-01T01:07:22;0.55;;;0.32;;
40595;SDS011;26304;48.794;9.820;2023-04-01T01:13:10;0.30;;;0.30;;
40595;SDS011;26304;48.794;9.820;2023-04-01T01:19:01;0.45;;;0.45;;
40595;SDS011;26304;48.794;9.820;2023-04-01T01:24:57;0.50;;;0.50;;
40595;SDS011;26304;48.794;9.820;2023-04-01T01:30:53;0.45;;;0.30;;
40595;SDS011;26304;48.794;9.820;2023-04-01T01:36:43;0.40;;;0.40;;
40595;SDS011;26304;48.794;9.820;2023-04-01T01:42:27;0.35;;;0.35;;
40595;SDS011;26304;48.794;9.820;2023-04-01T01:48:13;0.50;;;0.30;;
40595;SDS011;26304;48.794;9.820;2023-04-01T01:53:59;0.28;;;0.28;;
40595;SDS011;26304;48.794;9.820;2023-04-01T01:59:41;0.20;;;0.20;;
40595;SDS011;26304;48.794;9.820;2023-04-01T02:05:28;0.30;;;0.30;;
40595;SDS011;26304;48.794;9.820;2023-04-01T02:11:15;0.30;;;0.30;;
40595;SDS011;26304;48.794;9.820;2023-04-01T02:17:00;0.30;;;0.30;;
40595;SDS011;26304;48.794;9.820;2023-04-01T02:22:47;0.60;;;0.60;;
40595;SDS011;26304;48.794;9.820;2023-04-01T02:28:33;0.30;;;0.30;;
40595;SDS011;26304;48.794;9.820;2023-04-01T02:34:19;0.35;;;0.30;;
40595;SDS011;26304;48.794;9.820;2023-04-01T02:40:04;0.25;;;0.20;;
40595;SDS011;26304;48.794;9.820;2023-04-01T02:45:50;0.57;;;0.30;;
40595;SDS011;26304;48.794;9.820;2023-04-01T02:51:32;0.35;;;0.35;;
40595;SDS011;26304;48.794;9.820;2023-04-01T02:57:15;0.60;;;0.30;;
40595;SDS011;26304;48.794;9.820;2023-04-01T03:02:59;0.38;;;0.30;;
40595;SDS011;26304;48.794;9.820;2023-04-01T03:08:41;0.50;;;0.40;;
40595;SDS011;26304;48.794;9.820;2023-04-01T03:14:25;0.57;;;0.20;;
40595;SDS011;26304;48.794;9.820;2023-04-01T03:20:09;0.43;;;0.30;;
40595;SDS011;26304;48.794;9.820;2023-04-01T03:25:53;0.95;;;0.30;;
40595;SDS011;26304;48.794;9.820;2023-04-01T03:31:35;0.38;;;0.30;;
40595;SDS011;26304;48.794;9.820;2023-04-01T03:37:19;0.45;;;0.28;;
40595;SDS011;26304;48.794;9.820;2023-04-01T03:43:01;0.90;;;0.45;;
40595;SDS011;26304;48.794;9.820;2023-04-01T03:48:44;1.10;;;0.30;;
40595;SDS011;26304;48.794;9.820;2023-04-01T03:54:28;1.00;;;0.40;;
40595;SDS011;26304;48.794;9.820;2023-04-01T04:00:11;0.40;;;0.32;;
40595;SDS011;26304;48.794;9.820;2023-04-01T04:05:54;0.45;;;0.32;;
40595;SDS011;26304;48.794;9.820;2023-04-01T04:11:38;0.30;;;0.30;;
40595;SDS011;26304;48.794;9.820;2023-04-01T04:17:21;1.85;;;0.40;;
40595;SDS011;26304;48.794;9.820;2023-04-01T04:23:03;0.30;;;0.30;;
40595;SDS011;26304;48.794;9.820;2023-04-01T04:28:47;1.52;;;0.40;;
40595;SDS011;26304;48.794;9.820;2023-04-01T04:34:29;0.28;;;0.28;;
40595;SDS011;26304;48.794;9.820;2023-04-01T04:40:12;1.42;;;0.60;;
40595;SDS011;26304;48.794;9.820;2023-04-01T04:45:56;1.58;;;0.45;;
40595;SDS011;26304;48.794;9.820;2023-04-01T04:51:38;5.03;;;0.70;;
40595;SDS011;26304;48.794;9.820;2023-04-01T04:57:20;2.05;;;0.90;;
40595;SDS011;26304;48.794;9.820;2023-04-01T05:03:07;2.95;;;0.93;;
40595;SDS011;26304;48.794;9.820;2023-04-01T05:08:50;4.22;;;0.80;;
40595;SDS011;26304;48.794;9.820;2023-04-01T05:14:33;2.53;;;1.10;;
40595;SDS011;26304;48.794;9.820;2023-04-01T05:20:17;3.80;;;1.00;;
40595;SDS011;26304;48.794;9.820;2023-04-01T05:26:02;4.35;;;1.30;;
40595;SDS011;26304;48.794;9.820;2023-04-01T05:31:45;7.38;;;1.40;;
40595;SDS011;26304;48.794;9.820;2023-04-01T05:37:28;4.43;;;1.35;;
40595;SDS011;26304;48.794;9.820;2023-04-01T05:43:11;2.90;;;1.00;;
40595;SDS011;26304;48.794;9.820;2023-04-01T05:48:54;3.88;;;0.95;;
40595;SDS011;26304;48.794;9.820;2023-04-01T05:54:38;2.28;;;1.10;;
40595;SDS011;26304;48.794;9.820;2023-04-01T06:00:20;6.78;;;1.30;;
40595;SDS011;26304;48.794;9.820;2023-04-01T06:06:03;2.40;;;1.10;;
40595;SDS011;26304;48.794;9.820;2023-04-01T06:11:51;1.15;;;0.80;;
40595;SDS011;26304;48.794;9.820;2023-04-01T06:24:05;2.30;;;0.80;;
40595;SDS011;26304;48.794;9.820;2023-04-01T06:30:10;2.78;;;0.82;;
40595;SDS011;26304;48.794;9.820;2023-04-01T06:42:15;1.65;;;0.70;;
40595;SDS011;26304;48.794;9.820;2023-04-01T06:48:23;1.55;;;0.98;;
40595;SDS011;26304;48.794;9.820;2023-04-01T06:54:24;2.47;;;0.82;;
40595;SDS011;26304;48.794;9.820;2023-04-01T07:00:13;2.28;;;0.90;;
40595;SDS011;26304;48.794;9.820;2023-04-01T07:06:00;1.85;;;0.88;;
40595;SDS011;26304;48.794;9.820;2023-04-01T07:11:45;2.13;;;0.70;;
40595;SDS011;26304;48.794;9.820;2023-04-01T07:17:28;0.80;;;0.70;;
40595;SDS011;26304;48.794;9.820;2023-04-01T07:23:19;0.73;;;0.73;;
40595;SDS011;26304;48.794;9.820;2023-04-01T07:29:05;1.42;;;0.70;;
40595;SDS011;26304;48.794;9.820;2023-04-01T07:41:01;0.85;;;0.52;;
40595;SDS011;26304;48.794;9.820;2023-04-01T07:46:53;1.77;;;0.63;;
40595;SDS011;26304;48.794;9.820;2023-04-01T07:52:48;0.98;;;0.57;;
40595;SDS011;26304;48.794;9.820;2023-04-01T07:58:42;1.50;;;0.60;;
40595;SDS011;26304;48.794;9.820;2023-04-01T08:04:36;0.88;;;0.50;;
40595;SDS011;26304;48.794;9.820;2023-04-01T08:10:33;1.95;;;0.60;;
40595;SDS011;26304;48.794;9.820;2023-04-01T08:16:26;0.82;;;0.60;;
40595;SDS011;26304;48.794;9.820;2023-04-01T08:22:15;1.95;;;0.47;;
40595;SDS011;26304;48.794;9.820;2023-04-01T08:28:03;2.05;;;0.70;;
40595;SDS011;26304;48.794;9.820;2023-04-01T08:33:55;2.58;;;0.75;;
40595;SDS011;26304;48.794;9.820;2023-04-01T08:39:39;2.13;;;0.75;;
40595;SDS011;26304;48.794;9.820;2023-04-01T08:45:29;1.55;;;0.80;;
40595;SDS011;26304;48.794;9.820;2023-04-01T08:51:31;1.85;;;0.60;;
40595;SDS011;26304;48.794;9.820;2023-04-01T08:57:36;0.80;;;0.50;;
40595;SDS011;26304;48.794;9.820;2023-04-01T09:03:29;2.10;;;0.60;;
40595;SDS011;26304;48.794;9.820;2023-04-01T09:15:54;2.40;;;0.40;;
40595;SDS011;26304;48.794;9.820;2023-04-01T09:22:10;2.00;;;0.45;;
40595;SDS011;26304;48.794;9.820;2023-04-01T09:28:07;0.60;;;0.43;;
40595;SDS011;26304;48.794;9.820;2023-04-01T09:34:00;1.15;;;0.57;;
40595;SDS011;26304;48.794;9.820;2023-04-01T09:40:09;0.77;;;0.50;;
40595;SDS011;26304;48.794;9.820;2023-04-01T09:46:12;0.32;;;0.32;;
40595;SDS011;26304;48.794;9.820;2023-04-01T09:52:07;1.40;;;0.57;;
40595;SDS011;26304;48.794;9.820;2023-04-01T09:58:13;0.30;;;0.30;;
40595;SDS011;26304;48.794;9.820;2023-04-01T10:04:22;1.08;;;0.43;;
40595;SDS011;26304;48.794;9.820;2023-04-01T10:10:36;1.60;;;0.63;;
40595;SDS011;26304;48.794;9.820;2023-04-01T10:16:45;2.85;;;0.52;;
40595;SDS011;26304;48.794;9.820;2023-04-01T10:22:53;1.10;;;0.63;;
40595;SDS011;26304;48.794;9.820;2023-04-01T10:35:44;3.72;;;0.77;;
40595;SDS011;26304;48.794;9.820;2023-04-01T10:48:20;1.08;;;0.65;;
40595;SDS011;26304;48.794;9.820;2023-04-01T10:54:29;2.67;;;0.68;;
40595;SDS011;26304;48.794;9.820;2023-04-01T11:00:30;2.97;;;0.63;;
40595;SDS011;26304;48.794;9.820;2023-04-01T11:06:47;2.15;;;0.88;;
40595;SDS011;26304;48.794;9.820;2023-04-01T11:13:21;2.22;;;0.50;;
40595;SDS011;26304;48.794;9.820;2023-04-01T11:19:34;1.08;;;0.50;;
40595;SDS011;26304;48.794;9.820;2023-04-01T11:25:55;1.38;;;0.80;;
40595;SDS011;26304;48.794;9.820;2023-04-01T11:31:47;1.38;;;0.50;;
40595;SDS011;26304;48.794;9.820;2023-04-01T11:37:38;3.38;;;0.80;;
40595;SDS011;26304;48.794;9.820;2023-04-01T11:43:31;4.72;;;0.77;;
40595;SDS011;26304;48.794;9.820;2023-04-01T11:49:23;2.33;;;0.70;;
40595;SDS011;26304;48.794;9.820;2023-04-01T11:55:20;1.13;;;0.83;;
40595;SDS011;26304;48.794;9.820;2023-04-01T12:07:13;0.63;;;0.60;;
40595;SDS011;26304;48.794;9.820;2023-04-01T12:13:02;0.40;;;0.40;;
40595;SDS011;26304;48.794;9.820;2023-04-01T12:18:57;0.60;;;0.40;;
40595;SDS011;26304;48.794;9.820;2023-04-01T12:24:45;1.75;;;0.50;;
40595;SDS011;26304;48.794;9.820;2023-04-01T12:30:32;0.52;;;0.50;;
40595;SDS011;26304;48.794;9.820;2023-04-01T12:36:44;0.55;;;0.45;;
40595;SDS011;26304;48.794;9.820;2023-04-01T12:42:37;1.20;;;1.10;;
40595;SDS011;26304;48.794;9.820;2023-04-01T12:48:42;0.68;;;0.68;;
40595;SDS011;26304;48.794;9.820;2023-04-01T12:55:05;0.98;;;0.52;;
40595;SDS011;26304;48.794;9.820;2023-04-01T13:01:03;0.50;;;0.50;;
40595;SDS011;26304;48.794;9.820;2023-04-01T13:07:13;1.05;;;0.50;;
40595;SDS011;26304;48.794;9.820;2023-04-01T13:19:24;0.43;;;0.43;;
40595;SDS011;26304;48.794;9.820;2023-04-01T13:25:15;0.70;;;0.60;;
40595;SDS011;26304;48.794;9.820;2023-04-01T13:31:13;0.80;;;0.70;;
40595;SDS011;26304;48.794;9.820;2023-04-01T13:37:15;0.68;;;0.68;;
40595;SDS011;26304;48.794;9.820;2023-04-01T13:43:11;0.50;;;0.50;;
40595;SDS011;26304;48.794;9.820;2023-04-01T13:49:20;0.65;;;0.50;;
40595;SDS011;26304;48.794;9.820;2023-04-01T14:01:32;0.90;;;0.50;;
40595;SDS011;26304;48.794;9.820;2023-04-01T14:07:29;0.40;;;0.40;;
40595;SDS011;26304;48.794;9.820;2023-04-01T14:13:23;0.77;;;0.40;;
40595;SDS011;26304;48.794;9.820;2023-04-01T14:19:16;0.40;;;0.30;;
40595;SDS011;26304;48.794;9.820;2023-04-01T14:25:18;1.85;;;0.63;;
40595;SDS011;26304;48.794;9.820;2023-04-01T14:31:33;0.60;;;0.50;;
40595;SDS011;26304;48.794;9.820;2023-04-01T14:37:33;0.68;;;0.68;;
40595;SDS011;26304;48.794;9.820;2023-04-01T14:49:46;0.73;;;0.70;;
40595;SDS011;26304;48.794;9.820;2023-04-01T14:55:31;0.50;;;0.50;;
40595;SDS011;26304;48.794;9.820;2023-04-01T15:01:30;0.60;;;0.60;;
40595;SDS011;26304;48.794;9.820;2023-04-01T15:13:41;2.50;;;0.80;;
40595;SDS011;26304;48.794;9.820;2023-04-01T15:19:41;1.10;;;0.80;;
40595;SDS011;26304;48.794;9.820;2023-04-01T15:25:43;1.10;;;0.98;;
40595;SDS011;26304;48.794;9.820;2023-04-01T15:31:34;2.60;;;1.20;;
40595;SDS011;26304;48.794;9.820;2023-04-01T15:37:26;2.25;;;1.50;;
40595;SDS011;26304;48.794;9.820;2023-04-01T15:43:22;4.63;;;2.40;;
40595;SDS011;26304;48.794;9.820;2023-04-01T15:49:26;5.30;;;1.80;;
40595;SDS011;26304;48.794;9.820;2023-04-01T15:55:21;4.35;;;1.90;;
40595;SDS011;26304;48.794;9.820;2023-04-01T16:01:14;6.88;;;2.10;;
40595;SDS011;26304;48.794;9.820;2023-04-01T16:07:05;6.40;;;1.75;;
40595;SDS011;26304;48.794;9.820;2023-04-01T16:13:04;2.72;;;1.48;;
40595;SDS011;26304;48.794;9.820;2023-04-01T16:25:17;3.15;;;1.58;;
40595;SDS011;26304;48.794;9.820;2023-04-01T16:31:05;3.55;;;1.35;;
40595;SDS011;26304;48.794;9.820;2023-04-01T16:36:51;2.50;;;1.10;;
40595;SDS011;26304;48.794;9.820;2023-04-01T16:42:43;4.00;;;1.40;;
40595;SDS011;26304;48.794;9.820;2023-04-01T16:48:35;4.03;;;1.25;;
40595;SDS011;26304;48.794;9.820;2023-04-01T16:54:35;2.80;;;1.15;;
40595;SDS011;26304;48.794;9.820;2023-04-01T17:00:26;4.30;;;1.17;;
40595;SDS011;26304;48.794;9.820;2023-04-01T17:06:18;3.53;;;1.48;;
40595;SDS011;26304;48.794;9.820;2023-04-01T17:12:09;3.28;;;1.52;;
40595;SDS011;26304;48.794;9.820;2023-04-01T17:17:59;6.15;;;2.17;;
40595;SDS011;26304;48.794;9.820;2023-04-01T17:23:50;6.25;;;2.08;;
40595;SDS011;26304;48.794;9.820;2023-04-01T17:29:38;3.97;;;2.10;;
40595;SDS011;26304;48.794;9.820;2023-04-01T17:35:27;4.00;;;1.98;;
40595;SDS011;26304;48.794;9.820;2023-04-01T17:41:17;5.13;;;2.53;;
40595;SDS011;26304;48.794;9.820;2023-04-01T17:47:13;2.13;;;1.63;;
40595;SDS011;26304;48.794;9.820;2023-04-01T17:59:21;3.15;;;1.80;;
40595;SDS011;26304;48.794;9.820;2023-04-01T18:05:24;3.65;;;1.80;;
40595;SDS011;26304;48.794;9.820;2023-04-01T18:11:13;3.97;;;1.88;;
40595;SDS011;26304;48.794;9.820;2023-04-01T18:17:11;4.65;;;1.98;;
40595;SDS011;26304;48.794;9.820;2023-04-01T18:23:00;4.32;;;2.25;;
40595;SDS011;26304;48.794;9.820;2023-04-01T18:28:47;2.30;;;1.65;;
40595;SDS011;26304;48.794;9.820;2023-04-01T18:34:39;2.78;;;1.90;;
40595;SDS011;26304;48.794;9.820;2023-04-01T18:40:32;3.10;;;1.98;;
40595;SDS011;26304;48.794;9.820;2023-04-01T18:46:19;4.30;;;2.03;;
40595;SDS011;26304;48.794;9.820;2023-04-01T18:52:10;5.13;;;3.67;;
40595;SDS011;26304;48.794;9.820;2023-04-01T18:58:18;7.05;;;4.60;;
40595;SDS011;26304;48.794;9.820;2023-04-01T19:04:15;8.90;;;3.90;;
40595;SDS011;26304;48.794;9.820;2023-04-01T19:10:12;5.13;;;3.42;;
40595;SDS011;26304;48.794;9.820;2023-04-01T19:15:57;4.78;;;3.92;;
40595;SDS011;26304;48.794;9.820;2023-04-01T19:21:47;4.85;;;2.97;;
40595;SDS011;26304;48.794;9.820;2023-04-01T19:27:40;5.65;;;3.30;;
40595;SDS011;26304;48.794;9.820;2023-04-01T19:33:29;3.35;;;2.70;;
40595;SDS011;26304;48.794;9.820;2023-04-01T19:39:26;2.85;;;2.55;;
40595;SDS011;26304;48.794;9.820;2023-04-01T19:45:22;4.32;;;1.95;;
40595;SDS011;26304;48.794;9.820;2023-04-01T19:51:12;6.00;;;1.58;;
40595;SDS011;26304;48.794;9.820;2023-04-01T19:57:05;1.70;;;1.58;;
40595;SDS011;26304;48.794;9.820;2023-04-01T20:03:00;2.08;;;1.45;;
40595;SDS011;26304;48.794;9.820;2023-04-01T20:08:49;1.42;;;1.33;;
40595;SDS011;26304;48.794;9.820;2023-04-01T20:14:40;3.90;;;1.60;;
40595;SDS011;26304;48.794;9.820;2023-04-01T20:20:29;3.38;;;1.58;;
40595;SDS011;26304;48.794;9.820;2023-04-01T20:26:13;1.40;;;1.27;;
40595;SDS011;26304;48.794;9.820;2023-04-01T20:32:05;1.73;;;1.25;;
40595;SDS011;26304;48.794;9.820;2023-04-01T20:37:56;1.50;;;1.40;;
40595;SDS011;26304;48.794;9.820;2023-04-01T20:43:52;1.38;;;1.25;;
40595;SDS011;26304;48.794;9.820;2023-04-01T20:49:47;1.35;;;1.25;;
40595;SDS011;26304;48.794;9.820;2023-04-01T20:55:55;1.88;;;1.15;;
40595;SDS011;26304;48.794;9.820;2023-04-01T21:02:06;1.45;;;1.20;;
40595;SDS011;26304;48.794;9.820;2023-04-01T21:08:00;1.48;;;1.38;;
40595;SDS011;26304;48.794;9.820;2023-04-01T21:13:56;1.33;;;1.23;;
40595;SDS011;26304;48.794;9.820;2023-04-01T21:19:52;1.77;;;1.02;;
40595;SDS011;26304;48.794;9.820;2023-04-01T21:25:53;1.92;;;1.38;;
40595;SDS011;26304;48.794;9.820;2023-04-01T21:31:52;1.20;;;1.00;;
40595;SDS011;26304;48.794;9.820;2023-04-01T21:37:56;1.40;;;1.10;;
40595;SDS011;26304;48.794;9.820;2023-04-01T21:43:53;1.30;;;1.00;;
40595;SDS011;26304;48.794;9.820;2023-04-01T21:56:34;1.40;;;0.90;;
40595;SDS011;26304;48.794;9.820;2023-04-01T22:02:57;1.25;;;1.10;;
40595;SDS011;26304;48.794;9.820;2023-04-01T22:09:08;1.73;;;1.00;;
40595;SDS011;26304;48.794;9.820;2023-04-01T22:14:57;1.02;;;0.90;;
40595;SDS011;26304;48.794;9.820;2023-04-01T22:20:53;1.10;;;1.00;;
40595;SDS011;26304;48.794;9.820;2023-04-01T22:26:46;1.35;;;0.98;;
40595;SDS011;26304;48.794;9.820;2023-04-01T22:32:38;0.65;;;0.65;;
40595;SDS011;26304;48.794;9.820;2023-04-01T22:38:29;1.08;;;1.00;;
40595;SDS011;26304;48.794;9.820;2023-04-01T22:44:26;1.13;;;1.02;;
40595;SDS011;26304;48.794;9.820;2023-04-01T22:50:18;0.98;;;0.90;;
40595;SDS011;26304;48.794;9.820;2023-04-01T22:56:06;1.13;;;1.02;;
40595;SDS011;26304;48.794;9.820;2023-04-01T23:01:53;0.82;;;0.77;;
40595;SDS011;26304;48.794;9.820;2023-04-01T23:07:41;1.02;;;1.00;;
40595;SDS011;26304;48.794;9.820;2023-04-01T23:13:32;0.82;;;0.82;;
40595;SDS011;26304;48.794;9.820;2023-04-01T23:19:21;0.68;;;0.68;;
40595;SDS011;26304;48.794;9.820;2023-04-01T23:25:15;0.85;;;0.80;;
40595;SDS011;26304;48.794;9.820;2023-04-01T23:37:08;0.70;;;0.70;;
40595;SDS011;26304;48.794;9.820;2023-04-01T23:42:54;0.68;;;0.68;;
40595;SDS011;26304;48.794;9.820;2023-04-01T23:48:37;0.80;;;0.80;;
40595;SDS011;26304;48.794;9.820;2023-04-01T23:54:24;1.02;;;0.93;;
